Time,TemperatureF,DewpointF,PressureIn,WindDirection,WindDirectionDegrees,WindSpeedMPH,WindSpeedGustMPH,Humidity,HourlyPrecipIn,Conditions,Clouds,dailyrainin,SoftwareType,DateUTC
2013-11-21 00:00:00,37.6,35.8,29.78,North,0,0.0,0.0,93,0.00,,SKC,0.00,VWS V12.07,2013-11-21 07:00:00,
2013-11-21 01:00:00,37.6,35.8,29.77,North,0,0.0,0.0,93,0.00,,SKC,0.00,VWS V12.07,2013-11-21 08:00:00,
2013-11-21 02:00:00,37.8,35.7,29.79,North,0,0.0,0.0,92,0.00,,SKC,0.00,VWS V12.07,2013-11-21 09:00:00,
2013-11-21 03:00:00,37.2,35.1,29.82,North,0,0.0,0.0,92,0.00,,SKC,0.00,VWS V12.07,2013-11-21 10:00:00,
2013-11-21 04:00:00,36.9,35.1,29.83,North,0,0.0,0.0,93,0.00,,SKC,0.00,VWS V12.07,2013-11-21 11:00:00,
2013-11-21 05:00:00,35.6,34.0,29.84,North,0,0.0,0.0,94,0.00,,SKC,0.00,VWS V12.07,2013-11-21 12:00:00,
2013-11-21 06:00:00,34.9,33.6,29.88,North,0,0.0,0.0,95,0.00,,SKC,0.00,VWS V12.07,2013-11-21 13:00:00,
2013-11-21 07:00:00,34.1,32.8,29.91,North,0,0.0,0.0,95,0.00,,SKC,0.00,VWS V12.07,2013-11-21 14:00:00,
2013-11-21 08:00:00,33.4,32.1,29.92,North,0,0.0,0.0,95,0.00,,SKC,0.00,VWS V12.07,2013-11-21 15:00:00,
2013-11-21 09:00:00,33.7,32.4,29.94,North,0,0.0,0.0,95,0.00,,SKC,0.00,VWS V12.07,2013-11-21 16:00:00,
2013-11-21 10:00:00,33.7,32.4,29.96,North,0,0.0,0.0,95,0.00,,SKC,0.00,VWS V12.07,2013-11-21 17:00:00,
2013-11-21 11:00:00,33.2,31.9,29.99,North,0,0.0,0.0,95,0.00,,SKC,0.00,VWS V12.07,2013-11-21 18:00:00,
2013-11-21 12:00:00,32.7,31.4,29.98,North,0,0.0,0.0,95,0.00,,SKC,0.00,VWS V12.07,2013-11-21 19:00:00,
2013-11-21 13:00:00,31.2,29.9,30.01,North,0,0.0,0.0,95,0.00,,SKC,0.00,VWS V12.07,2013-11-21 20:00:00,
2013-11-21 14:00:00,29.8,28.5,30.03,North,0,0.0,0.0,95,0.00,,SKC,0.00,VWS V12.07,2013-11-21 21:00:00,
2013-11-21 15:00:00,30.0,28.7,30.08,North,0,0.0,0.0,95,0.00,,SKC,0.00,VWS V12.07,2013-11-21 22:00:00,
2013-11-21 16:00:00,29.7,28.5,30.11,North,0,0.0,0.0,95,0.00,,SKC,0.00,VWS V12.07,2013-11-21 23:00:00,
2013-11-21 17:00:00,29.3,28.0,30.15,North,0,0.0,0.0,95,0.00,,SKC,0.00,VWS V12.07,2013-11-22 00:00:00,
2013-11-21 18:00:00,29.0,27.8,30.19,North,0,0.0,0.0,95,0.00,,SKC,0.00,VWS V12.07,2013-11-22 01:00:00,
2013-11-21 19:00:00,28.7,27.5,30.22,North,0,0.0,0.0,95,0.00,,SKC,0.00,VWS V12.07,2013-11-22 02:00:00,
2013-11-21 20:00:00,29.0,27.8,30.21,North,0,0.0,0.0,95,0.00,,SKC,0.00,VWS V12.07,2013-11-22 03:00:00,
2013-11-21 21:00:00,31.3,23.7,30.20,North,0,0.0,0.0,73,0.00,,SKC,0.00,VWS V12.07,2013-11-22 04:00:00,
2013-11-21 22:00:00,33.1,17.4,30.21,North,0,0.0,0.0,52,0.00,,SKC,0.00,VWS V12.07,2013-11-22 05:00:00,
2013-11-21 23:00:00,34.0,15.4,30.23,North,0,0.0,0.0,46,0.00,,SKC,0.00,VWS V12.07,2013-11-22 06:00:00,